Time;durP1;ratioP1;P1;durP2;ratioP2;P2;SDS_P1;SDS_P2;PMS_P1;PMS_P2;Temp;Humidity;BMP_temperature;BMP_pressure;BME280_temperature;BME280_humidity;BME280_pressure;Samples;Min_cycle;Max_cycle;Signal;HPM_P1;HPM_P2
2021/08/02 00:00:27;;;;;;;6.10;5.60;;;13.40;99.90;;;;;;4974967;28;20022;-69
2021/08/02 00:03:01;;;;;;;5.63;5.13;;;13.50;99.90;;;;;;4976154;28;20023;-68
2021/08/02 00:05:33;;;;;;;5.80;5.25;;;13.60;99.90;;;;;;4976253;28;20014;-69
2021/08/02 00:08:02;;;;;;;6.35;5.22;;;13.70;99.90;;;;;;4974662;28;20395;-69
2021/08/02 00:10:35;;;;;;;5.85;5.35;;;13.70;99.90;;;;;;4976136;28;20027;-69
2021/08/02 00:13:13;;;;;;;5.47;4.95;;;13.80;99.90;;;;;;4974244;28;20050;-69
2021/08/02 00:15:41;;;;;;;8.90;5.70;;;14.00;99.90;;;;;;4976077;28;20022;-69
2021/08/02 00:18:10;;;;;;;8.63;5.40;;;14.10;99.90;;;;;;4975978;28;20023;-68
2021/08/02 00:20:38;;;;;;;5.03;4.40;;;14.20;99.90;;;;;;4976077;28;20054;-68
2021/08/02 00:23:09;;;;;;;6.90;4.68;;;14.30;99.90;;;;;;4975801;28;20027;-68
2021/08/02 00:25:37;;;;;;;5.88;4.60;;;14.40;99.90;;;;;;4975818;28;20031;-68
2021/08/02 00:28:05;;;;;;;8.13;4.50;;;14.50;99.90;;;;;;4974461;28;20026;-68
2021/08/02 00:30:34;;;;;;;5.60;4.47;;;14.70;99.90;;;;;;4975809;28;20081;-69
2021/08/02 00:33:02;;;;;;;6.10;4.60;;;14.80;99.90;;;;;;4975782;28;20023;-69
2021/08/02 00:35:35;;;;;;;6.90;4.93;;;14.80;99.90;;;;;;4975744;28;20476;-70
2021/08/02 00:38:09;;;;;;;6.97;5.05;;;15.00;99.90;;;;;;4975724;28;20050;-69
2021/08/02 00:40:49;;;;;;;9.23;4.63;;;15.10;99.90;;;;;;4975568;28;20081;-69
2021/08/02 00:43:22;;;;;;;4.90;4.40;;;15.20;99.90;;;;;;4975553;28;20089;-70
2021/08/02 00:45:52;;;;;;;8.50;4.78;;;15.30;99.90;;;;;;4975833;28;20016;-69
2021/08/02 00:48:24;;;;;;;7.55;4.45;;;15.40;99.90;;;;;;4975478;28;20030;-70
2021/08/02 00:50:52;;;;;;;6.38;4.45;;;15.40;99.90;;;;;;4975376;28;20018;-69
2021/08/02 00:53:26;;;;;;;5.20;3.95;;;15.50;99.90;;;;;;4975687;28;20019;-71
2021/08/02 00:55:56;;;;;;;6.68;3.90;;;15.60;99.90;;;;;;4975518;28;20021;-70
2021/08/02 00:58:25;;;;;;;6.97;4.10;;;15.70;99.90;;;;;;4975210;28;20026;-71
2021/08/02 01:00:54;;;;;;;8.60;3.70;;;15.80;99.70;;;;;;4975370;28;20343;-72
2021/08/02 01:03:22;;;;;;;5.57;3.80;;;15.80;99.90;;;;;;4975105;28;20500;-70
2021/08/02 01:05:54;;;;;;;7.65;3.78;;;16.00;99.90;;;;;;4975438;28;20423;-69
2021/08/02 01:08:28;;;;;;;4.35;3.78;;;16.10;99.60;;;;;;4973969;28;20023;-70
2021/08/02 01:11:04;;;;;;;6.25;3.40;;;16.30;99.50;;;;;;4975032;28;20047;-70
2021/08/02 01:13:38;;;;;;;6.28;3.38;;;16.40;98.90;;;;;;4974903;28;20531;-70
2021/08/02 01:16:08;;;;;;;8.45;3.88;;;16.50;98.20;;;;;;4975090;28;20105;-71
2021/08/02 01:18:37;;;;;;;6.57;3.58;;;16.50;98.60;;;;;;4974173;28;20031;-71
2021/08/02 01:21:09;;;;;;;6.30;3.53;;;16.40;97.80;;;;;;4973820;28;20038;-71
2021/08/02 01:23:38;;;;;;;8.32;3.40;;;16.50;97.70;;;;;;4973561;28;20026;-68
2021/08/02 01:26:05;;;;;;;5.32;3.40;;;16.70;97.60;;;;;;4974865;28;20110;-68
2021/08/02 01:28:32;;;;;;;4.97;3.10;;;16.80;97.70;;;;;;4974993;28;20023;-69
2021/08/02 01:31:02;;;;;;;7.50;3.85;;;17.10;97.40;;;;;;4974805;28;20030;-68
2021/08/02 01:33:32;;;;;;;5.43;2.80;;;17.10;96.20;;;;;;4974730;28;20023;-71
2021/08/02 01:36:02;;;;;;;5.78;3.28;;;17.20;96.50;;;;;;4974513;28;20500;-69
2021/08/02 01:38:31;;;;;;;5.40;3.30;;;17.30;96.00;;;;;;4974544;28;20392;-70
2021/08/02 01:40:58;;;;;;;7.72;3.03;;;17.40;96.40;;;;;;4974503;28;20052;-70
2021/08/02 01:43:26;;;;;;;6.20;2.53;;;17.50;95.90;;;;;;4974535;28;20023;-69
2021/08/02 01:46:04;;;;;;;4.50;2.95;;;17.50;95.30;;;;;;4973138;28;20365;-71
2021/08/02 01:48:47;;;;;;;4.78;3.00;;;17.40;94.60;;;;;;4974372;28;20035;-70
2021/08/02 01:51:21;;;;;;;3.95;2.90;;;17.50;95.50;;;;;;4972391;28;20031;-71
2021/08/02 01:54:12;;;;;;;5.53;3.10;;;17.70;94.90;;;;;;4974305;28;20027;-70
2021/08/02 01:57:05;;;;;;;5.05;2.70;;;17.90;94.60;;;;;;4974422;28;20476;-70
2021/08/02 02:00:08;;;;;;;5.43;3.20;;;18.00;95.20;;;;;;4968641;28;20495;-70
2021/08/02 02:02:36;;;;;;;6.22;3.40;;;18.10;94.90;;;;;;4961100;28;20059;-69
2021/08/02 02:05:15;;;;;;;7.32;3.80;;;18.10;94.60;;;;;;4972714;28;20059;-68
2021/08/02 02:07:47;;;;;;;5.10;2.60;;;18.10;93.80;;;;;;4974063;28;20022;-69
2021/08/02 02:10:17;;;;;;;7.45;3.00;;;18.20;94.10;;;;;;4972793;28;20027;-69
2021/08/02 02:12:47;;;;;;;7.80;2.95;;;17.90;93.50;;;;;;4973935;28;20073;-68
2021/08/02 02:15:15;;;;;;;9.10;4.23;;;17.80;94.20;;;;;;4974018;28;20050;-68
2021/08/02 02:17:44;;;;;;;5.60;3.40;;;17.70;94.40;;;;;;4974165;28;20027;-69
2021/08/02 02:20:14;;;;;;;10.18;3.85;;;17.70;93.90;;;;;;4972987;28;20039;-69
2021/08/02 02:22:43;;;;;;;8.63;3.60;;;17.50;94.00;;;;;;4973948;28;20023;-68
2021/08/02 02:25:11;;;;;;;8.02;3.85;;;17.70;94.90;;;;;;4974024;28;20019;-69
2021/08/02 02:27:40;;;;;;;8.50;3.38;;;17.80;94.50;;;;;;4973833;28;20023;-69
2021/08/02 02:30:08;;;;;;;5.28;3.47;;;17.90;93.90;;;;;;4973877;28;20034;-70
2021/08/02 02:32:38;;;;;;;6.65;3.50;;;17.80;94.00;;;;;;4972317;28;20403;-68
2021/08/02 02:35:06;;;;;;;7.50;3.25;;;18.00;93.90;;;;;;4972600;28;20502;-69
2021/08/02 02:37:34;;;;;;;5.40;3.30;;;18.20;94.20;;;;;;4972523;28;20085;-69
2021/08/02 02:40:03;;;;;;;6.68;3.60;;;18.50;94.60;;;;;;4973672;28;20546;-69
2021/08/02 02:42:32;;;;;;;6.25;3.50;;;18.70;93.70;;;;;;4973855;28;20027;-69
2021/08/02 02:45:00;;;;;;;5.15;3.17;;;18.70;93.20;;;;;;4973758;28;20023;-68
2021/08/02 02:47:30;;;;;;;6.35;3.15;;;18.70;93.30;;;;;;4972535;28;20082;-68
2021/08/02 02:49:59;;;;;;;6.55;3.50;;;18.60;93.90;;;;;;4973830;28;20135;-68
2021/08/02 02:52:27;;;;;;;7.15;3.75;;;18.50;93.30;;;;;;4972526;28;20038;-69
2021/08/02 02:54:56;;;;;;;5.43;3.15;;;18.40;93.40;;;;;;4973654;28;20085;-69
2021/08/02 02:57:23;;;;;;;5.93;3.20;;;18.40;94.20;;;;;;4972380;28;20031;-69
2021/08/02 02:59:50;;;;;;;5.82;3.50;;;18.30;93.90;;;;;;4972391;28;20050;-68
2021/08/02 03:02:20;;;;;;;6.75;3.63;;;18.30;94.10;;;;;;4973797;28;20476;-68
2021/08/02 03:04:52;;;;;;;9.88;4.18;;;18.30;94.30;;;;;;4975518;28;20505;-69
2021/08/02 03:07:20;;;;;;;6.75;3.58;;;18.10;93.90;;;;;;4977300;28;20015;-69
2021/08/02 03:09:49;;;;;;;7.35;3.42;;;18.20;94.80;;;;;;4975786;28;20395;-69
2021/08/02 03:12:16;;;;;;;6.28;3.40;;;18.30;94.20;;;;;;4976998;28;20534;-69
2021/08/02 03:14:44;;;;;;;4.25;2.72;;;18.30;94.70;;;;;;4975800;28;20022;-69
2021/08/02 03:17:12;;;;;;;10.35;3.70;;;18.30;94.70;;;;;;4977112;28;20041;-68
2021/08/02 03:19:39;;;;;;;9.35;2.97;;;18.30;94.40;;;;;;4976988;28;20030;-69
2021/08/02 03:22:23;;;;;;;10.05;3.53;;;18.40;95.10;;;;;;4975670;28;20039;-69
2021/08/02 03:25:05;;;;;;;8.88;3.50;;;18.20;94.60;;;;;;4975686;28;20088;-69
2021/08/02 03:27:44;;;;;;;30.88;7.13;;;18.40;95.30;;;;;;4975633;28;20029;-69
2021/08/02 03:30:13;;;;;;;3.53;2.95;;;18.50;95.10;;;;;;4975643;28;20034;-69
2021/08/02 03:32:45;;;;;;;6.15;3.42;;;18.40;94.30;;;;;;4976852;28;20027;-69
2021/08/02 03:35:14;;;;;;;5.40;3.42;;;18.30;94.50;;;;;;4975342;28;20134;-69
2021/08/02 03:37:43;;;;;;;7.67;3.63;;;18.30;94.30;;;;;;4976567;28;20027;-69
2021/08/02 03:40:15;;;;;;;5.88;2.90;;;18.10;94.30;;;;;;4976572;28;20280;-69
2021/08/02 03:42:43;;;;;;;7.53;3.40;;;17.90;94.70;;;;;;4976630;28;20034;-70
2021/08/02 03:45:13;;;;;;;8.95;3.35;;;17.80;95.20;;;;;;4975178;28;20051;-68
2021/08/02 03:47:42;;;;;;;7.13;3.40;;;17.90;95.20;;;;;;4976430;28;20054;-69
2021/08/02 03:50:10;;;;;;;9.95;3.53;;;17.70;95.10;;;;;;4976436;28;20037;-69
2021/08/02 03:52:37;;;;;;;10.15;3.35;;;17.80;95.40;;;;;;4976494;28;20023;-71
2021/08/02 03:55:08;;;;;;;8.18;3.20;;;17.90;95.80;;;;;;4976183;28;20054;-69
2021/08/02 03:57:35;;;;;;;6.32;3.08;;;17.70;95.40;;;;;;4976745;28;20054;-69
2021/08/02 04:00:03;;;;;;;8.55;3.83;;;17.80;95.90;;;;;;4975145;28;20122;-69
2021/08/02 04:02:31;;;;;;;9.63;3.90;;;18.10;95.90;;;;;;4975017;28;20031;-70
2021/08/02 04:04:58;;;;;;;6.57;3.20;;;18.20;95.00;;;;;;4976425;28;20110;-70
2021/08/02 04:07:25;;;;;;;8.20;3.65;;;18.30;95.20;;;;;;4976613;28;20081;-69
2021/08/02 04:09:56;;;;;;;8.50;4.20;;;18.20;95.30;;;;;;4976077;28;20506;-68
2021/08/02 04:12:23;;;;;;;7.95;3.53;;;18.00;95.00;;;;;;4976019;28;20134;-70
2021/08/02 04:14:50;;;;;;;8.65;3.53;;;17.80;95.30;;;;;;4975639;28;20458;-70
2021/08/02 04:17:18;;;;;;;7.32;3.38;;;17.70;95.70;;;;;;4976381;28;20031;-70
2021/08/02 04:19:45;;;;;;;7.28;3.35;;;17.80;95.80;;;;;;4974590;28;20376;-70
2021/08/02 04:22:12;;;;;;;5.60;3.20;;;17.70;96.00;;;;;;4976046;28;20023;-70
2021/08/02 04:24:40;;;;;;;6.18;3.67;;;17.80;95.80;;;;;;4976017;28;20023;-70
2021/08/02 04:27:07;;;;;;;4.53;3.10;;;17.90;96.20;;;;;;4975841;28;20023;-70
2021/08/02 04:29:34;;;;;;;7.85;3.67;;;18.20;96.20;;;;;;4974649;28;20494;-71
2021/08/02 04:32:02;;;;;;;7.50;3.53;;;18.20;95.80;;;;;;4975785;28;20022;-70
2021/08/02 04:34:29;;;;;;;8.48;3.88;;;18.30;96.10;;;;;;4974468;28;20035;-71
2021/08/02 04:36:57;;;;;;;6.47;3.42;;;18.20;95.80;;;;;;4974559;28;20085;-70
2021/08/02 04:39:24;;;;;;;5.80;3.72;;;18.00;95.90;;;;;;4975537;28;20081;-70
2021/08/02 04:41:51;;;;;;;6.40;4.10;;;17.90;96.20;;;;;;4975696;28;20022;-70
2021/08/02 04:44:19;;;;;;;6.40;3.50;;;17.80;96.80;;;;;;4975503;28;20070;-70
2021/08/02 04:46:46;;;;;;;6.95;3.60;;;17.80;96.70;;;;;;4976020;28;20015;-70
2021/08/02 04:49:13;;;;;;;6.07;3.17;;;17.80;97.00;;;;;;4975881;28;20101;-70
2021/08/02 04:51:41;;;;;;;6.38;3.47;;;17.70;96.80;;;;;;4976041;28;20098;-69
2021/08/02 04:54:08;;;;;;;7.80;3.50;;;17.70;96.90;;;;;;4976003;28;20054;-70
2021/08/02 04:56:35;;;;;;;7.93;4.10;;;17.60;96.90;;;;;;4975481;28;20077;-70
2021/08/02 04:59:03;;;;;;;9.18;4.13;;;17.70;97.50;;;;;;4975541;28;20027;-71
2021/08/02 05:01:30;;;;;;;9.73;3.80;;;17.60;97.20;;;;;;4975778;28;20479;-70
2021/08/02 05:03:58;;;;;;;5.55;3.67;;;17.50;97.60;;;;;;4975831;28;20102;-71
2021/08/02 05:06:25;;;;;;;6.30;3.63;;;17.30;97.50;;;;;;4975486;28;20038;-69
2021/08/02 05:08:52;;;;;;;8.82;4.00;;;17.20;97.80;;;;;;4975669;28;20419;-70
2021/08/02 05:11:20;;;;;;;7.60;4.03;;;17.10;98.20;;;;;;4975237;28;20027;-70
2021/08/02 05:13:47;;;;;;;7.70;3.47;;;17.00;98.70;;;;;;4975517;28;20027;-70
2021/08/02 05:16:15;;;;;;;6.18;3.28;;;17.00;99.00;;;;;;4975605;28;20030;-70
2021/08/02 05:18:42;;;;;;;8.77;3.80;;;17.00;98.70;;;;;;4974987;28;20031;-69
2021/08/02 05:21:09;;;;;;;7.85;3.80;;;17.10;98.40;;;;;;4973907;28;20034;-69
2021/08/02 05:23:37;;;;;;;9.13;3.92;;;17.00;98.70;;;;;;4975075;28;20078;-69
2021/08/02 05:26:07;;;;;;;7.43;3.53;;;16.80;98.60;;;;;;4972782;28;20423;-70
2021/08/02 05:28:34;;;;;;;8.85;4.18;;;16.70;99.10;;;;;;4975094;28;20364;-69
2021/08/02 05:31:02;;;;;;;6.32;3.38;;;16.70;99.10;;;;;;4975232;28;20026;-71
2021/08/02 05:33:29;;;;;;;5.82;3.88;;;16.70;99.30;;;;;;4975310;28;20359;-71
2021/08/02 05:35:56;;;;;;;6.60;3.67;;;16.70;99.30;;;;;;4974963;28;20388;-69
2021/08/02 05:38:24;;;;;;;7.80;3.60;;;16.70;99.60;;;;;;4974721;28;20034;-69
2021/08/02 05:40:51;;;;;;;8.38;3.70;;;16.70;99.90;;;;;;4974562;28;20027;-70
2021/08/02 05:43:18;;;;;;;10.27;4.47;;;16.70;99.50;;;;;;4974436;28;20029;-69
2021/08/02 05:45:46;;;;;;;6.63;3.97;;;16.80;99.90;;;;;;4974463;28;20087;-69
2021/08/02 05:48:13;;;;;;;7.60;3.50;;;16.80;99.70;;;;;;4974365;28;20069;-69
2021/08/02 05:50:40;;;;;;;6.85;3.90;;;16.80;99.90;;;;;;4972913;28;20039;-69
2021/08/02 05:53:07;;;;;;;8.43;3.72;;;16.80;99.90;;;;;;4972887;28;20048;-69
2021/08/02 05:55:35;;;;;;;8.23;3.78;;;16.80;99.90;;;;;;4974196;28;20018;-68
2021/08/02 05:58:03;;;;;;;6.32;3.20;;;16.90;99.90;;;;;;4956908;28;20038;-70
2021/08/02 06:00:30;;;;;;;11.98;4.30;;;16.90;99.90;;;;;;4974734;28;20033;-71
2021/08/02 06:02:57;;;;;;;10.63;3.80;;;16.90;99.90;;;;;;4974918;28;20038;-70
2021/08/02 06:05:25;;;;;;;10.00;3.75;;;16.90;99.90;;;;;;4974892;28;20084;-70
2021/08/02 06:07:52;;;;;;;8.40;3.92;;;16.90;99.90;;;;;;4973374;28;20027;-70
2021/08/02 06:10:19;;;;;;;10.10;3.45;;;16.90;99.90;;;;;;4973423;28;20118;-70
2021/08/02 06:12:47;;;;;;;8.90;3.83;;;17.00;99.90;;;;;;4974296;28;20133;-70
2021/08/02 06:15:16;;;;;;;5.05;2.92;;;17.00;99.90;;;;;;4974752;28;20480;-70
2021/08/02 06:17:44;;;;;;;7.40;3.83;;;17.00;99.80;;;;;;4974443;28;20127;-71
2021/08/02 06:20:12;;;;;;;11.70;4.15;;;16.90;99.90;;;;;;4973989;28;20027;-70
2021/08/02 06:22:39;;;;;;;11.20;3.80;;;16.90;99.90;;;;;;4972765;28;20034;-70
2021/08/02 06:25:07;;;;;;;5.65;3.55;;;16.80;99.90;;;;;;4973213;28;20484;-70
2021/08/02 06:27:35;;;;;;;8.23;3.80;;;16.80;99.90;;;;;;4974413;28;20379;-70
2021/08/02 06:30:03;;;;;;;9.02;4.03;;;16.60;99.90;;;;;;4972952;28;20080;-70
2021/08/02 06:32:30;;;;;;;6.88;3.85;;;16.60;99.90;;;;;;4972577;28;20034;-70
2021/08/02 06:34:58;;;;;;;14.10;4.20;;;16.50;99.90;;;;;;4972817;28;20498;-70
2021/08/02 06:37:27;;;;;;;11.38;4.47;;;16.40;99.90;;;;;;4975549;28;20061;-70
2021/08/02 06:39:54;;;;;;;12.45;4.03;;;16.30;99.90;;;;;;4976901;28;20117;-70
2021/08/02 06:42:22;;;;;;;12.52;3.78;;;16.20;99.90;;;;;;4977897;28;20022;-69
2021/08/02 06:44:49;;;;;;;9.00;3.28;;;16.20;99.90;;;;;;4977808;28;20018;-70
2021/08/02 06:47:17;;;;;;;13.45;4.00;;;16.10;99.90;;;;;;4977894;28;20023;-70
2021/08/02 06:49:44;;;;;;;9.00;3.88;;;16.10;99.90;;;;;;4977755;28;20499;-69
2021/08/02 06:52:11;;;;;;;11.77;3.92;;;16.10;99.90;;;;;;4977662;28;20552;-69
2021/08/02 06:54:39;;;;;;;9.05;3.35;;;16.20;99.90;;;;;;4977690;28;20034;-70
2021/08/02 06:57:06;;;;;;;5.95;3.47;;;16.20;99.90;;;;;;4977545;28;20085;-69
2021/08/02 06:59:33;;;;;;;8.98;4.00;;;16.20;99.90;;;;;;4977415;28;20518;-70
2021/08/02 07:02:01;;;;;;;9.73;3.85;;;16.10;99.90;;;;;;4977411;28;20030;-71
2021/08/02 07:04:28;;;;;;;10.30;3.50;;;16.10;99.90;;;;;;4977417;28;20475;-69
2021/08/02 07:06:55;;;;;;;7.15;3.63;;;16.00;99.90;;;;;;4975980;28;20030;-70
2021/08/02 07:09:23;;;;;;;10.77;3.80;;;15.90;99.90;;;;;;4976062;28;20507;-69
2021/08/02 07:11:50;;;;;;;8.38;3.65;;;15.80;99.90;;;;;;4975620;28;20518;-70
2021/08/02 07:14:17;;;;;;;7.20;3.47;;;15.60;99.90;;;;;;4977270;28;20050;-69
2021/08/02 07:16:44;;;;;;;8.63;3.88;;;15.50;99.90;;;;;;4975964;28;20507;-69
2021/08/02 07:19:12;;;;;;;9.20;3.88;;;15.40;99.90;;;;;;4977153;28;20360;-68
2021/08/02 07:21:39;;;;;;;8.35;4.28;;;15.40;99.90;;;;;;4977131;28;20019;-68
2021/08/02 07:24:06;;;;;;;8.52;2.92;;;15.30;99.90;;;;;;4975830;28;20034;-68
2021/08/02 07:26:34;;;;;;;7.13;3.45;;;15.30;99.90;;;;;;4976967;28;20056;-68
2021/08/02 07:29:02;;;;;;;10.77;3.15;;;15.20;99.90;;;;;;4975642;28;20464;-69
2021/08/02 07:31:30;;;;;;;5.28;2.45;;;15.20;99.90;;;;;;4975610;28;20031;-68
2021/08/02 07:33:57;;;;;;;5.20;2.72;;;15.10;99.90;;;;;;4977020;28;20075;-67
2021/08/02 07:36:24;;;;;;;7.60;3.00;;;15.10;99.90;;;;;;4975396;28;20488;-67
2021/08/02 07:38:52;;;;;;;10.05;2.90;;;15.00;99.90;;;;;;4976881;28;20031;-68
2021/08/02 07:41:19;;;;;;;6.72;2.90;;;15.00;99.90;;;;;;4976824;28;20019;-68
2021/08/02 07:43:46;;;;;;;8.07;2.80;;;15.00;99.90;;;;;;4976678;28;20050;-68
2021/08/02 07:46:14;;;;;;;9.15;2.97;;;14.90;99.90;;;;;;4976679;28;20447;-69
2021/08/02 07:48:41;;;;;;;6.90;3.65;;;14.80;99.90;;;;;;4975711;28;20049;-68
2021/08/02 07:51:09;;;;;;;9.50;3.20;;;14.80;99.90;;;;;;4976609;28;20146;-68
2021/08/02 07:53:36;;;;;;;8.93;3.42;;;14.70;99.90;;;;;;4975272;28;20174;-70
2021/08/02 07:56:04;;;;;;;7.38;3.25;;;14.70;99.90;;;;;;4975222;28;20096;-68
2021/08/02 07:58:31;;;;;;;10.25;3.75;;;14.60;99.90;;;;;;4976309;28;20023;-68
2021/08/02 08:00:58;;;;;;;6.97;3.55;;;14.60;99.90;;;;;;4975175;28;20039;-70
2021/08/02 08:03:26;;;;;;;9.52;4.18;;;14.50;99.90;;;;;;4975058;28;20054;-69
2021/08/02 08:05:53;;;;;;;8.45;3.10;;;14.50;99.90;;;;;;4975137;28;20023;-68
2021/08/02 08:08:21;;;;;;;9.05;3.83;;;14.50;99.90;;;;;;4976399;28;20082;-69
2021/08/02 08:10:49;;;;;;;9.27;4.10;;;14.50;99.90;;;;;;4976202;28;20387;-68
2021/08/02 08:13:17;;;;;;;6.07;3.28;;;14.50;99.90;;;;;;4976111;28;20074;-69
2021/08/02 08:15:44;;;;;;;5.15;3.45;;;14.60;99.90;;;;;;4974829;28;20117;-69
2021/08/02 08:18:11;;;;;;;7.80;3.50;;;14.50;99.90;;;;;;4976186;28;20477;-69
2021/08/02 08:20:39;;;;;;;8.52;3.70;;;14.50;99.90;;;;;;4976250;28;20030;-69
2021/08/02 08:23:06;;;;;;;9.38;3.47;;;14.50;99.90;;;;;;4976063;28;20030;-69
2021/08/02 08:25:34;;;;;;;8.00;3.72;;;14.40;99.90;;;;;;4976127;28;20026;-69
2021/08/02 08:28:01;;;;;;;8.15;3.40;;;14.50;99.90;;;;;;4974742;28;20077;-69
2021/08/02 08:30:30;;;;;;;7.47;3.60;;;14.40;99.90;;;;;;4974610;28;20034;-69
2021/08/02 08:32:57;;;;;;;12.63;4.28;;;14.50;99.90;;;;;;4976203;28;20102;-69
2021/08/02 08:35:25;;;;;;;6.45;4.25;;;14.50;99.90;;;;;;4976006;28;20062;-69
2021/08/02 08:37:52;;;;;;;9.13;4.32;;;14.50;99.90;;;;;;4974631;28;20027;-70
2021/08/02 08:40:22;;;;;;;10.45;4.60;;;14.60;99.90;;;;;;4975910;28;20113;-69
2021/08/02 08:42:50;;;;;;;13.48;5.10;;;14.60;99.90;;;;;;4975842;28;20023;-69
2021/08/02 08:45:18;;;;;;;8.45;4.72;;;14.60;99.90;;;;;;4974447;28;20364;-69
2021/08/02 08:47:46;;;;;;;13.98;9.35;;;14.60;99.90;;;;;;4975781;28;20046;-69
2021/08/02 08:50:14;;;;;;;9.82;6.50;;;14.50;99.90;;;;;;4974384;28;20122;-69
2021/08/02 08:52:41;;;;;;;8.98;4.50;;;14.60;99.90;;;;;;4976013;28;20027;-68
2021/08/02 08:55:14;;;;;;;9.75;5.10;;;14.60;99.90;;;;;;4974259;28;20512;-68
2021/08/02 08:57:43;;;;;;;12.52;5.20;;;14.70;99.90;;;;;;4974251;28;20110;-68
2021/08/02 09:00:25;;;;;;;11.65;7.03;;;14.70;99.90;;;;;;4973985;28;20055;-67
2021/08/02 09:02:55;;;;;;;24.42;18.80;;;14.60;99.90;;;;;;4975513;28;20144;-68
2021/08/02 09:05:33;;;;;;;15.85;7.53;;;14.70;99.90;;;;;;4975866;28;20439;-68
2021/08/02 09:08:01;;;;;;;13.70;5.63;;;14.70;99.90;;;;;;4975563;28;20432;-68
2021/08/02 09:10:29;;;;;;;11.32;6.15;;;14.80;99.90;;;;;;4975422;28;20018;-69
2021/08/02 09:13:00;;;;;;;13.27;7.57;;;14.70;99.90;;;;;;4975077;28;20055;-69
2021/08/02 09:15:42;;;;;;;13.93;5.70;;;14.70;99.90;;;;;;4975225;28;20391;-68
2021/08/02 09:18:15;;;;;;;11.00;5.97;;;14.80;99.90;;;;;;4973816;28;20126;-68
2021/08/02 09:20:43;;;;;;;20.52;8.95;;;14.90;99.90;;;;;;4975343;28;20383;-68
2021/08/02 09:23:13;;;;;;;11.85;6.50;;;14.80;99.90;;;;;;4973897;28;20061;-68
2021/08/02 09:25:50;;;;;;;10.60;6.20;;;14.80;99.90;;;;;;4975150;28;20019;-68
2021/08/02 09:28:21;;;;;;;10.88;5.90;;;14.80;99.90;;;;;;4974800;28;20484;-69
2021/08/02 09:31:01;;;;;;;14.25;6.22;;;14.80;99.90;;;;;;4974919;28;20034;-68
2021/08/02 09:33:44;;;;;;;14.30;5.60;;;14.80;99.90;;;;;;4973578;28;20578;-67
2021/08/02 09:36:12;;;;;;;13.27;5.78;;;14.80;99.90;;;;;;4974782;28;20472;-69
2021/08/02 09:38:39;;;;;;;12.80;5.05;;;14.80;99.90;;;;;;4974626;28;20090;-69
2021/08/02 09:41:07;;;;;;;14.00;6.78;;;14.80;99.90;;;;;;4974699;28;20023;-69
2021/08/02 09:43:34;;;;;;;11.00;5.93;;;14.80;99.90;;;;;;4973291;28;20503;-70
2021/08/02 09:46:04;;;;;;;11.75;6.20;;;14.80;99.90;;;;;;4974530;28;20022;-69
2021/08/02 09:48:41;;;;;;;10.35;6.13;;;14.70;99.90;;;;;;4974528;28;20049;-70
2021/08/02 09:51:17;;;;;;;15.50;6.85;;;14.70;99.90;;;;;;4974580;28;20019;-69
2021/08/02 09:53:57;;;;;;;17.40;9.45;;;14.70;99.90;;;;;;4974546;28;20390;-69
2021/08/02 09:56:25;;;;;;;12.57;6.65;;;14.70;99.90;;;;;;4974546;28;20029;-69
2021/08/02 09:58:52;;;;;;;16.45;7.50;;;14.80;99.90;;;;;;4972824;28;20026;-71
2021/08/02 10:01:21;;;;;;;14.30;9.82;;;14.80;99.90;;;;;;4972867;28;20030;-69
2021/08/02 10:03:49;;;;;;;17.23;13.40;;;14.90;99.90;;;;;;4974364;28;20483;-69
2021/08/02 10:06:17;;;;;;;12.23;8.75;;;14.90;99.90;;;;;;4974261;28;20062;-69
2021/08/02 10:08:44;;;;;;;13.68;8.77;;;14.90;99.90;;;;;;4974407;28;20027;-69
2021/08/02 10:11:12;;;;;;;16.15;9.55;;;14.90;99.90;;;;;;4972600;28;20483;-70
2021/08/02 10:13:43;;;;;;;14.88;7.47;;;14.90;99.90;;;;;;4973932;28;20110;-70
2021/08/02 10:16:15;;;;;;;15.52;8.35;;;15.00;99.90;;;;;;4972706;28;20547;-70
2021/08/02 10:18:52;;;;;;;16.73;7.57;;;15.00;99.90;;;;;;4973726;28;20034;-70
2021/08/02 10:21:23;;;;;;;14.40;7.20;;;15.00;99.90;;;;;;4974007;28;20027;-70
2021/08/02 10:23:50;;;;;;;10.73;6.32;;;15.10;99.90;;;;;;4974012;28;20515;-70
2021/08/02 10:26:28;;;;;;;12.00;6.20;;;15.10;99.90;;;;;;4972666;28;20030;-70
2021/08/02 10:28:58;;;;;;;11.93;6.85;;;15.20;99.90;;;;;;4972605;28;20035;-70
2021/08/02 10:31:27;;;;;;;14.77;6.72;;;15.20;99.90;;;;;;4974362;28;20030;-70
2021/08/02 10:33:55;;;;;;;16.08;6.80;;;15.20;99.90;;;;;;4974039;28;20030;-70
2021/08/02 10:36:25;;;;;;;14.65;7.10;;;15.30;99.90;;;;;;4973937;28;20106;-70
2021/08/02 10:38:54;;;;;;;17.25;8.15;;;15.30;99.90;;;;;;4973877;28;20023;-70
2021/08/02 10:41:30;;;;;;;17.30;7.95;;;15.40;99.90;;;;;;4972594;28;20023;-70
2021/08/02 10:44:14;;;;;;;23.50;8.13;;;15.30;99.90;;;;;;4973888;28;20499;-70
2021/08/02 10:46:42;;;;;;;19.17;8.98;;;15.30;99.90;;;;;;4972570;28;20019;-69
2021/08/02 10:49:14;;;;;;;13.32;7.93;;;15.20;99.90;;;;;;4972487;28;20027;-71
2021/08/02 10:51:56;;;;;;;14.45;7.32;;;15.20;99.90;;;;;;4973900;28;20365;-70
2021/08/02 10:54:24;;;;;;;16.17;7.40;;;15.20;99.90;;;;;;4973866;28;20026;-70
2021/08/02 10:56:53;;;;;;;15.10;6.88;;;15.20;99.90;;;;;;4972391;28;20117;-70
2021/08/02 10:59:21;;;;;;;12.35;6.82;;;15.20;99.90;;;;;;4973697;28;20027;-70
2021/08/02 11:01:50;;;;;;;12.10;6.82;;;15.20;99.90;;;;;;4973840;28;20027;-70
2021/08/02 11:04:18;;;;;;;13.70;6.85;;;15.20;99.90;;;;;;4973687;28;20023;-70
2021/08/02 11:06:47;;;;;;;18.05;7.80;;;15.10;99.90;;;;;;4973738;28;20097;-70
2021/08/02 11:09:15;;;;;;;11.30;6.75;;;15.10;99.90;;;;;;4973712;28;20055;-70
2021/08/02 11:11:43;;;;;;;17.90;6.68;;;15.10;99.90;;;;;;4973602;28;20055;-70
2021/08/02 11:14:21;;;;;;;15.35;8.18;;;15.10;99.90;;;;;;4972393;28;20129;-70
2021/08/02 11:16:54;;;;;;;16.40;8.07;;;15.00;99.90;;;;;;4973656;28;20391;-71
2021/08/02 11:19:21;;;;;;;12.98;8.10;;;15.00;99.90;;;;;;4973591;28;20019;-70
2021/08/02 11:21:58;;;;;;;21.35;8.57;;;14.90;99.90;;;;;;4972450;28;20074;-71
2021/08/02 11:24:27;;;;;;;15.93;7.95;;;14.80;99.90;;;;;;4974939;28;20109;-71
2021/08/02 11:26:57;;;;;;;15.02;7.70;;;14.80;99.90;;;;;;4977411;28;20025;-70
2021/08/02 11:29:24;;;;;;;20.88;8.30;;;14.90;99.90;;;;;;4977444;28;20031;-70
2021/08/02 11:32:08;;;;;;;15.52;7.82;;;14.90;99.90;;;;;;4976092;28;20039;-70
2021/08/02 11:34:37;;;;;;;15.50;7.93;;;14.80;99.90;;;;;;4977499;28;20027;-70
2021/08/02 11:37:06;;;;;;;16.38;8.40;;;14.80;99.90;;;;;;4977287;28;20055;-70
2021/08/02 11:39:36;;;;;;;13.98;8.20;;;14.80;99.90;;;;;;4977165;28;20023;-71
2021/08/02 11:42:17;;;;;;;18.50;9.30;;;14.70;99.90;;;;;;4977214;28;20034;-70
2021/08/02 11:44:50;;;;;;;17.45;7.93;;;14.60;99.90;;;;;;4977305;28;20029;-70
2021/08/02 11:47:21;;;;;;;15.00;8.90;;;14.60;99.90;;;;;;4976179;28;20019;-70
2021/08/02 11:49:50;;;;;;;14.15;8.80;;;14.60;99.90;;;;;;4977271;28;20452;-70
2021/08/02 11:52:19;;;;;;;17.02;9.23;;;14.60;99.90;;;;;;4975792;28;20027;-70
2021/08/02 11:54:58;;;;;;;14.43;8.98;;;14.60;99.90;;;;;;4977144;28;20475;-70
2021/08/02 11:57:25;;;;;;;15.40;9.65;;;14.60;99.90;;;;;;4977345;28;20361;-70
2021/08/02 12:00:01;;;;;;;18.95;9.43;;;14.70;99.90;;;;;;4977066;28;20075;-70
2021/08/02 12:03:05;;;;;;;17.25;8.70;;;14.70;99.90;;;;;;4976850;28;20027;-70
2021/08/02 12:05:32;;;;;;;17.10;8.85;;;14.60;99.90;;;;;;4977260;28;20029;-71
2021/08/02 12:08:12;;;;;;;16.50;10.10;;;14.60;99.90;;;;;;4975539;28;20026;-71
2021/08/02 12:10:39;;;;;;;21.88;9.77;;;14.60;99.90;;;;;;4975526;28;20117;-71
2021/08/02 12:13:15;;;;;;;17.17;10.73;;;14.60;99.90;;;;;;4975080;28;20055;-70
2021/08/02 12:15:58;;;;;;;17.05;10.73;;;14.60;99.90;;;;;;4976734;28;20054;-70
2021/08/02 12:18:28;;;;;;;15.45;9.82;;;14.60;99.90;;;;;;4976894;28;20030;-70
2021/08/02 12:21:09;;;;;;;18.95;10.25;;;14.60;99.90;;;;;;4975375;28;20022;-70
2021/08/02 12:23:36;;;;;;;18.45;10.65;;;14.60;99.90;;;;;;4975311;28;20361;-70
2021/08/02 12:26:18;;;;;;;18.00;10.82;;;14.60;99.90;;;;;;4976499;28;20030;-71
2021/08/02 12:28:47;;;;;;;20.25;12.07;;;14.60;99.90;;;;;;4976411;28;20105;-70
2021/08/02 12:31:23;;;;;;;21.20;11.27;;;14.60;99.90;;;;;;4975075;28;20050;-70
2021/08/02 12:33:52;;;;;;;16.95;10.38;;;14.50;99.90;;;;;;4976260;28;20029;-70
2021/08/02 12:36:21;;;;;;;18.73;11.45;;;14.50;99.90;;;;;;4975875;28;20542;-70
2021/08/02 12:38:52;;;;;;;19.95;11.90;;;14.60;99.90;;;;;;4974465;28;20022;-71
2021/08/02 12:41:19;;;;;;;19.52;11.77;;;14.60;99.90;;;;;;4976302;28;20099;-70
2021/08/02 12:43:48;;;;;;;20.17;12.15;;;14.70;99.90;;;;;;4976439;28;20368;-70
2021/08/02 12:46:15;;;;;;;17.55;11.85;;;14.80;99.90;;;;;;4976162;28;20101;-70
2021/08/02 12:48:44;;;;;;;20.25;12.82;;;14.80;99.90;;;;;;4975950;28;20483;-69
2021/08/02 12:51:13;;;;;;;19.17;12.38;;;14.70;99.90;;;;;;4975659;28;20054;-70
2021/08/02 12:53:40;;;;;;;19.48;13.18;;;14.70;99.90;;;;;;4975521;28;20019;-70
2021/08/02 12:56:08;;;;;;;22.23;13.18;;;14.70;99.90;;;;;;4975493;28;20397;-70